createdAt,value
2018-12-25T00:00:58.862Z,99665.30
2018-12-25T00:02:01.825Z,99665.30
2018-12-25T00:03:04.743Z,99674.04
2018-12-25T00:04:07.681Z,99680.65
2018-12-25T00:05:19.580Z,99685.97
2018-12-25T00:06:25.354Z,99678.74
2018-12-25T00:07:28.747Z,99685.41
2018-12-25T00:08:31.645Z,99693.98
2018-12-25T00:09:39.305Z,99681.89
2018-12-25T00:10:42.280Z,99693.45
2018-12-25T00:11:45.285Z,99690.72
2018-12-25T00:12:48.198Z,99690.98
2018-12-25T00:13:56.326Z,99690.98
2018-12-25T00:14:59.351Z,99690.65
2018-12-25T00:16:02.338Z,99696.44
2018-12-25T00:17:05.347Z,99695.66
2018-12-25T00:18:08.295Z,99697.53
2018-12-25T00:20:49.399Z,99690.16
2018-12-25T00:21:55.364Z,99700.22
2018-12-25T00:22:58.594Z,99698.88
2018-12-25T00:24:05.568Z,99695.44
2018-12-25T00:25:10.711Z,99696.78
2018-12-25T00:26:14.021Z,99702.56
2018-12-25T00:27:17.050Z,99702.05
2018-12-25T00:28:22.342Z,99702.05
2018-12-25T00:29:25.284Z,99706.06
2018-12-25T00:30:29.122Z,99696.41
2018-12-25T00:31:34.298Z,99696.47
2018-12-25T00:32:37.667Z,99696.73
2018-12-25T00:33:41.170Z,99696.73
2018-12-25T00:34:47.981Z,99704.50
2018-12-25T00:35:50.974Z,99704.20
2018-12-25T00:36:53.923Z,99709.28
2018-12-25T00:38:01.299Z,99707.23
2018-12-25T00:39:04.831Z,99707.23
2018-12-25T00:40:09.910Z,99707.42
2018-12-25T00:41:12.487Z,99707.42
2018-12-25T00:42:15.449Z,99700.66
2018-12-25T00:43:22.922Z,99698.88
2018-12-25T00:44:28.698Z,99696.48
2018-12-25T00:45:32.152Z,99696.48
2018-12-25T00:46:35.574Z,99693.77
2018-12-25T00:47:38.606Z,99688.58
2018-12-25T00:48:41.627Z,99686.55
2018-12-25T00:49:44.666Z,99685.09
2018-12-25T00:50:48.000Z,99682.77
2018-12-25T00:51:53.259Z,99684.91
2018-12-25T00:52:56.212Z,99694.73
2018-12-25T00:53:59.235Z,99687.72
2018-12-25T00:55:02.190Z,99682.81
2018-12-25T00:56:05.165Z,99688.59
2018-12-25T00:57:08.656Z,99689.06
2018-12-25T00:58:11.930Z,99691.71
2018-12-25T00:59:21.009Z,99693.78
2018-12-25T01:00:19.520Z,99691.28
2018-12-25T01:01:25.964Z,99688.41
2018-12-25T01:02:28.890Z,99688.08
2018-12-25T01:03:32.171Z,99687.08
2018-12-25T01:04:35.529Z,99688.41
2018-12-25T01:05:38.547Z,99689.66
2018-12-25T01:06:41.485Z,99683.80
2018-12-25T01:07:44.428Z,99687.79
2018-12-25T01:08:48.854Z,99690.80
2018-12-25T01:09:51.875Z,99691.09
2018-12-25T01:10:55.069Z,99689.75
2018-12-25T01:11:58.066Z,99691.28
2018-12-25T01:13:01.067Z,99700.63
2018-12-25T01:14:06.662Z,99697.30
2018-12-25T01:15:09.709Z,99697.89
2018-12-25T01:16:15.773Z,99699.17
2018-12-25T01:17:19.058Z,99700.41
2018-12-25T01:18:22.076Z,99694.25
2018-12-25T01:19:25.004Z,99694.25
2018-12-25T01:20:30.767Z,99696.27
2018-12-25T01:21:33.694Z,99696.02
2018-12-25T01:22:36.663Z,99698.06
2018-12-25T01:23:41.220Z,99697.38
2018-12-25T01:24:44.180Z,99694.64
2018-12-25T01:25:49.596Z,99694.64
2018-12-25T01:26:52.551Z,99701.40
2018-12-25T01:27:55.506Z,99696.07
2018-12-25T01:28:58.518Z,99696.07
2018-12-25T01:30:01.755Z,99700.06
2018-12-25T01:31:07.295Z,99699.41
2018-12-25T01:32:10.232Z,99707.47
2018-12-25T01:33:15.206Z,99710.16
2018-12-25T01:34:18.180Z,99708.45
2018-12-25T01:35:21.578Z,99711.33
2018-12-25T01:36:24.955Z,99711.33
2018-12-25T01:37:29.851Z,99709.33
2018-12-25T01:38:32.490Z,99710.97
2018-12-25T01:39:35.533Z,99704.25
2018-12-25T01:40:38.514Z,99704.25
2018-12-25T01:41:42.953Z,99704.73
2018-12-25T01:42:47.260Z,99705.30
2018-12-25T01:43:53.047Z,99705.30
2018-12-25T01:44:56.025Z,99703.41
2018-12-25T01:45:58.976Z,99707.44
2018-12-25T01:47:01.894Z,99706.34
2018-12-25T01:48:04.859Z,99706.34
2018-12-25T01:49:08.179Z,99713.41
2018-12-25T01:50:11.135Z,99704.55
2018-12-25T01:51:14.042Z,99706.70
2018-12-25T01:52:17.003Z,99706.70
2018-12-25T01:53:20.468Z,99713.59
2018-12-25T01:54:23.400Z,99703.59
2018-12-25T01:55:26.640Z,99705.42
2018-12-25T01:56:29.580Z,99709.69
2018-12-25T01:57:32.599Z,99709.69
2018-12-25T01:58:35.534Z,99708.42
2018-12-25T01:59:39.030Z,99712.31
2018-12-25T02:00:42.009Z,99710.36
2018-12-25T02:01:45.391Z,99705.13
2018-12-25T02:02:48.387Z,99711.29
2018-12-25T02:03:51.332Z,99709.76
2018-12-25T02:04:54.405Z,99701.16
2018-12-25T02:05:57.351Z,99703.03
2018-12-25T02:07:00.796Z,99708.48
2018-12-25T02:08:04.110Z,99708.48
2018-12-25T02:09:08.778Z,99709.45
2018-12-25T02:10:11.737Z,99709.45
2018-12-25T02:11:15.150Z,99703.47
2018-12-25T02:12:18.099Z,99710.06
2018-12-25T02:13:21.071Z,99709.56
2018-12-25T02:14:26.298Z,99709.56
2018-12-25T02:15:29.231Z,99715.25
2018-12-25T02:16:32.286Z,99713.11
2018-12-25T02:17:35.214Z,99701.95
2018-12-25T02:18:38.161Z,99711.22
2018-12-25T02:19:41.118Z,99700.34
2018-12-25T02:20:44.769Z,99713.06
2018-12-25T02:21:47.823Z,99706.20
2018-12-25T02:22:50.843Z,99698.77
2018-12-25T02:23:53.805Z,99710.91
2018-12-25T02:24:57.304Z,99711.72
2018-12-25T02:26:00.345Z,99709.16
2018-12-25T02:27:03.729Z,99713.25
2018-12-25T02:28:07.143Z,99711.72
2018-12-25T02:29:10.113Z,99700.17
2018-12-25T02:30:16.005Z,99700.17
2018-12-25T02:31:18.645Z,99709.14
2018-12-25T02:32:23.856Z,99716.85
2018-12-25T02:33:27.128Z,99715.51
2018-12-25T02:34:32.783Z,99715.06
2018-12-25T02:35:35.841Z,99715.06
2018-12-25T02:36:38.766Z,99708.66
2018-12-25T02:37:42.232Z,99708.17
2018-12-25T02:38:48.718Z,99713.06
2018-12-25T02:39:52.131Z,99707.13
2018-12-25T02:40:55.578Z,99704.33
2018-12-25T02:42:01.630Z,99704.33
2018-12-25T02:43:05.775Z,99707.99
2018-12-25T02:44:08.699Z,99714.59
2018-12-25T02:45:11.990Z,99708.48
2018-12-25T02:46:14.922Z,99700.90
2018-12-25T02:47:18.039Z,99705.11
2018-12-25T02:48:21.040Z,99705.11
2018-12-25T02:49:24.000Z,99709.63
2018-12-25T02:50:26.972Z,99711.16
2018-12-25T02:51:30.478Z,99710.69
2018-12-25T02:52:33.530Z,99703.53
2018-12-25T02:53:36.888Z,99705.80
2018-12-25T02:54:39.810Z,99706.22
2018-12-25T02:55:42.763Z,99701.45
2018-12-25T02:56:45.672Z,99700.47
2018-12-25T02:57:49.657Z,99701.64
2018-12-25T02:58:52.604Z,99707.48
2018-12-25T02:59:55.595Z,99693.66
2018-12-25T03:00:58.637Z,99700.86
2018-12-25T03:02:01.617Z,99700.86
2018-12-25T03:03:04.607Z,99705.67
2018-12-25T03:04:07.991Z,99692.78
2018-12-25T03:05:10.940Z,99701.94
2018-12-25T03:06:13.845Z,99701.94
2018-12-25T03:07:16.769Z,99705.18
2018-12-25T03:08:19.771Z,99707.08
2018-12-25T03:09:25.094Z,99700.59
2018-12-25T03:10:30.158Z,99700.59
2018-12-25T03:11:36.033Z,99698.55
2018-12-25T03:12:40.903Z,99695.84
2018-12-25T03:13:47.802Z,99691.50
2018-12-25T03:14:50.726Z,99692.30
2018-12-25T03:15:53.769Z,99691.95
2018-12-25T03:16:59.051Z,99689.02
2018-12-25T03:18:02.306Z,99691.89
2018-12-25T03:19:05.343Z,99692.48
2018-12-25T03:20:08.379Z,99694.73
2018-12-25T03:21:11.285Z,99694.73
2018-12-25T03:22:14.235Z,99690.55
2018-12-25T03:23:17.528Z,99691.14
2018-12-25T03:24:20.581Z,99689.02
2018-12-25T03:25:23.627Z,99695.47
2018-12-25T03:26:33.993Z,99697.08
2018-12-25T03:27:37.416Z,99697.62
2018-12-25T03:28:40.387Z,99691.70
2018-12-25T03:29:43.791Z,99689.09
2018-12-25T03:30:49.552Z,99690.66
2018-12-25T03:31:54.266Z,99702.30
2018-12-25T03:32:59.610Z,99698.36
2018-12-25T03:34:11.287Z,99699.44
2018-12-25T03:35:18.216Z,99699.44
2018-12-25T03:36:22.850Z,99687.23
2018-12-25T03:37:27.876Z,99691.14
2018-12-25T03:38:30.806Z,99696.47
2018-12-25T03:39:33.743Z,99693.36
2018-12-25T03:40:36.696Z,99685.66
2018-12-25T03:41:39.703Z,99684.24
2018-12-25T03:42:43.028Z,99676.51
2018-12-25T03:43:45.976Z,99677.89
2018-12-25T03:44:48.913Z,99677.89
2018-12-25T03:45:51.865Z,99679.13
2018-12-25T03:46:54.879Z,99683.39
2018-12-25T03:47:57.828Z,99679.73
2018-12-25T03:49:01.448Z,99680.09
2018-12-25T03:50:10.606Z,99684.62
2018-12-25T03:51:08.977Z,99688.52
2018-12-25T03:52:12.004Z,99688.52
2018-12-25T03:53:14.943Z,99690.23
2018-12-25T03:54:17.914Z,99692.02
2018-12-25T03:55:21.201Z,99692.42
2018-12-25T03:56:24.116Z,99692.42
2018-12-25T03:57:27.167Z,99689.86
2018-12-25T03:58:30.091Z,99689.37
2018-12-25T03:59:35.951Z,99689.37
2018-12-25T04:00:38.968Z,99681.83
2018-12-25T04:01:42.374Z,99672.67
2018-12-25T04:02:45.314Z,99664.17
2018-12-25T04:03:48.368Z,99675.15
2018-12-25T04:04:51.311Z,99670.22
2018-12-25T04:05:54.247Z,99670.03
2018-12-25T04:06:57.206Z,99672.43
2018-12-25T04:08:01.112Z,99672.24
2018-12-25T04:09:04.928Z,99667.30
2018-12-25T04:10:07.918Z,99667.16
2018-12-25T04:11:10.877Z,99669.98
2018-12-25T04:12:13.914Z,99662.36
2018-12-25T04:13:17.308Z,99663.89
2018-12-25T04:14:20.809Z,99669.92
2018-12-25T04:15:23.747Z,99669.30
2018-12-25T04:16:27.160Z,99669.30
2018-12-25T04:17:30.457Z,99669.78
2018-12-25T04:18:33.845Z,99675.27
2018-12-25T04:19:36.861Z,99672.89
2018-12-25T04:20:40.192Z,99672.89
2018-12-25T04:21:43.139Z,99678.47
2018-12-25T04:22:46.097Z,99679.00
2018-12-25T04:23:49.503Z,99679.00
2018-12-25T04:24:53.047Z,99680.28
2018-12-25T04:25:56.015Z,99678.08
2018-12-25T04:26:59.285Z,99682.91
2018-12-25T04:28:02.831Z,99681.80
2018-12-25T04:29:05.957Z,99682.06
2018-12-25T04:30:08.911Z,99688.39
2018-12-25T04:31:11.927Z,99688.66
2018-12-25T04:32:14.866Z,99690.66
2018-12-25T04:33:18.135Z,99689.26
2018-12-25T04:34:21.090Z,99680.78
2018-12-25T04:35:24.103Z,99682.98
2018-12-25T04:36:27.150Z,99677.61
2018-12-25T04:37:30.132Z,99677.61
2018-12-25T04:38:33.049Z,99675.77
2018-12-25T04:39:38.526Z,99680.47
2018-12-25T04:40:41.450Z,99678.34
2018-12-25T04:41:44.884Z,99678.34
2018-12-25T04:42:48.649Z,99674.36
2018-12-25T04:43:51.626Z,99676.63
2018-12-25T04:44:54.639Z,99684.05
2018-12-25T04:45:57.869Z,99684.05
2018-12-25T04:47:01.022Z,99684.68
2018-12-25T04:48:03.991Z,99687.09
2018-12-25T04:49:06.944Z,99687.09
2018-12-25T04:50:09.888Z,99694.11
2018-12-25T04:51:13.322Z,99689.15
2018-12-25T04:52:16.618Z,99689.15
2018-12-25T04:53:19.592Z,99690.89
2018-12-25T04:54:22.552Z,99681.17
2018-12-25T04:55:25.961Z,99687.31
2018-12-25T04:56:28.914Z,99690.36
2018-12-25T04:57:31.932Z,99690.36
2018-12-25T04:58:36.491Z,99675.03
2018-12-25T04:59:39.423Z,99675.03
2018-12-25T05:00:42.426Z,99682.38
2018-12-25T05:01:45.351Z,99682.38
2018-12-25T05:02:48.384Z,99679.70
2018-12-25T05:03:51.360Z,99679.96
2018-12-25T05:04:54.629Z,99669.10
2018-12-25T05:05:57.547Z,99666.91
2018-12-25T05:07:03.337Z,99673.31
2018-12-25T05:08:06.369Z,99673.31
2018-12-25T05:09:09.297Z,99668.25
2018-12-25T05:10:12.219Z,99665.39
2018-12-25T05:11:15.483Z,99663.73
2018-12-25T05:12:18.426Z,99672.61
2018-12-25T05:13:21.938Z,99666.80
2018-12-25T05:14:24.922Z,99658.06
2018-12-25T05:15:27.876Z,99669.80
2018-12-25T05:16:31.118Z,99664.84
2018-12-25T05:17:34.157Z,99666.17
2018-12-25T05:18:37.117Z,99660.94
2018-12-25T05:19:40.154Z,99670.46
2018-12-25T05:20:43.072Z,99667.46
2018-12-25T05:21:46.068Z,99667.46
2018-12-25T05:22:50.631Z,99662.70
2018-12-25T05:23:56.064Z,99669.59
2018-12-25T05:24:59.064Z,99667.09
2018-12-25T05:26:03.129Z,99673.69
2018-12-25T05:27:06.127Z,99674.13
2018-12-25T05:28:09.072Z,99684.34
2018-12-25T05:29:12.424Z,99674.55
2018-12-25T05:30:15.416Z,99674.55
2018-12-25T05:31:18.360Z,99672.97
2018-12-25T05:32:21.316Z,99673.80
2018-12-25T05:33:24.276Z,99681.39
2018-12-25T05:34:27.318Z,99672.36
2018-12-25T05:35:30.707Z,99672.36
2018-12-25T05:36:36.529Z,99675.78
2018-12-25T05:37:39.465Z,99675.78
2018-12-25T05:38:42.413Z,99674.96
2018-12-25T05:39:45.367Z,99666.91
2018-12-25T05:40:48.392Z,99670.35
2018-12-25T05:41:51.695Z,99672.83
2018-12-25T05:42:55.093Z,99672.83
2018-12-25T05:43:58.115Z,99668.14
2018-12-25T05:45:01.067Z,99677.89
2018-12-25T05:46:04.020Z,99671.54
2018-12-25T05:47:07.030Z,99673.05
2018-12-25T05:48:09.975Z,99674.96
2018-12-25T05:49:12.925Z,99674.96
2018-12-25T05:50:15.859Z,99678.03
2018-12-25T05:51:18.812Z,99678.03
2018-12-25T05:52:21.825Z,99674.59
2018-12-25T05:53:24.760Z,99674.59
2018-12-25T05:54:32.959Z,99684.61
2018-12-25T05:55:36.401Z,99675.83
2018-12-25T05:56:39.318Z,99680.95
2018-12-25T05:57:42.358Z,99678.03
2018-12-25T05:58:45.270Z,99672.21
2018-12-25T05:59:48.224Z,99677.91
2018-12-25T06:00:51.486Z,99679.59
2018-12-25T06:01:54.508Z,99668.97
2018-12-25T06:02:57.481Z,99679.48
2018-12-25T06:04:00.507Z,99680.89
2018-12-25T06:05:03.419Z,99683.14
2018-12-25T06:06:06.402Z,99684.61
2018-12-25T06:07:09.858Z,99682.55
2018-12-25T06:08:12.795Z,99682.55
2018-12-25T06:09:15.775Z,99689.93
2018-12-25T06:10:18.741Z,99686.39
2018-12-25T06:11:21.683Z,99685.54
2018-12-25T06:12:24.743Z,99673.76
2018-12-25T06:13:28.066Z,99686.50
2018-12-25T06:14:32.081Z,99686.69
2018-12-25T06:15:35.004Z,99686.56
2018-12-25T06:16:37.993Z,99686.56
2018-12-25T06:17:41.016Z,99683.64
2018-12-25T06:18:43.943Z,99682.42
2018-12-25T06:19:47.341Z,99682.42
2018-12-25T06:20:55.086Z,99676.25
2018-12-25T06:21:55.343Z,99684.55
2018-12-25T06:22:58.843Z,99680.16
2018-12-25T06:24:01.809Z,99677.30
2018-12-25T06:25:04.831Z,99675.72
2018-12-25T06:26:11.315Z,99677.72
2018-12-25T06:27:14.210Z,99673.74
2018-12-25T06:28:17.611Z,99673.74
2018-12-25T06:29:21.045Z,99666.05
2018-12-25T06:43:48.175Z,99666.45
2018-12-25T06:44:51.627Z,99671.81
2018-12-25T06:45:54.578Z,99666.56
2018-12-25T06:46:57.879Z,99666.56
2018-12-25T06:48:01.376Z,99666.33
2018-12-25T06:49:06.717Z,99664.48
2018-12-25T06:50:11.707Z,99668.80
2018-12-25T06:51:15.377Z,99672.59
2018-12-25T06:52:18.458Z,99679.00
2018-12-25T06:53:21.833Z,99679.00
2018-12-25T06:54:24.845Z,99681.63
2018-12-25T06:55:28.418Z,99689.06
2018-12-25T06:56:32.049Z,99689.06
2018-12-25T06:57:38.656Z,99680.47
2018-12-25T06:58:41.927Z,99677.95
2018-12-25T06:59:44.899Z,99670.08
2018-12-25T07:00:47.881Z,99671.42
2018-12-25T07:01:51.513Z,99670.89
2018-12-25T07:02:54.523Z,99668.14
2018-12-25T07:03:57.524Z,99662.28
2018-12-25T07:05:00.450Z,99668.39
2018-12-25T07:06:03.406Z,99665.83
2018-12-25T07:07:06.363Z,99664.35
2018-12-25T07:08:09.759Z,99660.47
2018-12-25T07:09:12.807Z,99652.21
2018-12-25T07:10:15.786Z,99658.62
2018-12-25T07:11:18.766Z,99665.44
2018-12-25T07:12:22.136Z,99661.25
2018-12-25T07:13:25.556Z,99667.41
2018-12-25T07:14:32.194Z,99665.96
2018-12-25T07:15:35.612Z,99667.97
2018-12-25T07:16:38.632Z,99660.59
2018-12-25T07:17:41.906Z,99667.03
2018-12-25T07:18:45.942Z,99664.05
2018-12-25T07:19:49.027Z,99661.80
2018-12-25T07:20:53.313Z,99664.17
2018-12-25T07:21:56.221Z,99668.33
2018-12-25T07:22:59.330Z,99663.50
2018-12-25T07:24:02.524Z,99672.77
2018-12-25T07:25:05.809Z,99679.37
2018-12-25T07:26:09.438Z,99678.89
2018-12-25T07:27:12.751Z,99678.89
2018-12-25T07:28:15.835Z,99677.23
2018-12-25T07:29:18.932Z,99667.46
2018-12-25T07:30:22.101Z,99667.46
2018-12-25T07:31:25.057Z,99667.40
2018-12-25T07:32:30.855Z,99671.69
2018-12-25T07:33:34.910Z,99668.09
2018-12-25T07:34:38.032Z,99668.09
2018-12-25T07:35:40.974Z,99666.92
2018-12-25T07:36:43.904Z,99662.42
2018-12-25T07:37:47.006Z,99662.42
2018-12-25T07:38:49.955Z,99666.07
2018-12-25T07:39:53.442Z,99665.70
2018-12-25T07:41:00.377Z,99665.83
2018-12-25T07:42:04.309Z,99666.26
2018-12-25T07:43:07.391Z,99663.38
2018-12-25T07:44:10.673Z,99663.38
2018-12-25T07:45:14.152Z,99664.36
2018-12-25T07:46:17.151Z,99660.70
2018-12-25T07:47:22.403Z,99660.70
2018-12-25T07:48:25.394Z,99656.91
2018-12-25T07:49:28.578Z,99652.05
2018-12-25T07:50:31.950Z,99652.05
2018-12-25T07:51:37.026Z,99645.08
2018-12-25T07:52:39.982Z,99637.95
2018-12-25T07:53:42.943Z,99634.42
2018-12-25T07:54:45.890Z,99634.42
2018-12-25T07:55:48.872Z,99647.39
2018-12-25T07:56:55.871Z,99653.56
2018-12-25T07:57:59.773Z,99651.19
2018-12-25T07:59:02.737Z,99654.17
2018-12-25T08:00:06.349Z,99650.47
2018-12-25T08:01:09.414Z,99650.20
2018-12-25T08:02:15.770Z,99642.57
2018-12-25T08:03:19.131Z,99643.13
2018-12-25T08:04:22.447Z,99647.72
2018-12-25T08:05:25.454Z,99647.60
2018-12-25T08:06:28.543Z,99654.17
2018-12-25T08:07:34.439Z,99650.09
2018-12-25T08:08:37.464Z,99648.27
2018-12-25T08:09:40.772Z,99655.81
2018-12-25T08:10:43.720Z,99651.37
2018-12-25T08:11:46.788Z,99651.37
2018-12-25T08:12:50.250Z,99650.56
2018-12-25T08:13:53.181Z,99650.56
2018-12-25T08:14:56.223Z,99645.31
2018-12-25T08:15:59.508Z,99652.36
2018-12-25T08:17:02.474Z,99661.75
2018-12-25T08:18:05.426Z,99661.81
2018-12-25T08:19:08.445Z,99660.47
2018-12-25T08:20:11.457Z,99658.92
2018-12-25T08:21:14.432Z,99658.92
2018-12-25T08:22:17.659Z,99665.70
2018-12-25T08:23:20.615Z,99669.80
2018-12-25T08:24:23.985Z,99668.80
2018-12-25T08:25:27.121Z,99673.02
2018-12-25T08:26:30.477Z,99678.09
2018-12-25T08:27:33.849Z,99674.31
2018-12-25T08:28:37.094Z,99676.02
2018-12-25T08:29:40.041Z,99679.44
2018-12-25T08:30:43.857Z,99681.52
2018-12-25T08:31:50.009Z,99681.52
2018-12-25T08:32:52.972Z,99672.55
2018-12-25T08:33:55.997Z,99680.04
2018-12-25T08:34:59.318Z,99689.14
2018-12-25T08:36:02.295Z,99687.05
2018-12-25T08:37:05.207Z,99684.94
2018-12-25T08:38:08.754Z,99677.36
2018-12-25T08:39:11.684Z,99683.28
2018-12-25T08:40:14.733Z,99673.65
2018-12-25T08:41:18.163Z,99673.65
2018-12-25T08:42:21.097Z,99684.62
2018-12-25T08:43:25.907Z,99684.62
2018-12-25T08:44:28.646Z,99697.49
2018-12-25T08:45:31.655Z,99697.49
2018-12-25T08:46:34.662Z,99685.85
2018-12-25T08:47:42.673Z,99689.48
2018-12-25T08:48:48.056Z,99699.27
2018-12-25T08:49:53.343Z,99699.27
2018-12-25T08:50:56.572Z,99702.81
2018-12-25T08:52:02.663Z,99705.92
2018-12-25T08:53:05.678Z,99709.76
2018-12-25T08:54:11.067Z,99703.73
2018-12-25T08:55:14.069Z,99701.75
2018-12-25T08:56:20.041Z,99703.16
2018-12-25T08:57:22.974Z,99705.84
2018-12-25T08:58:28.954Z,99698.16
2018-12-25T08:59:32.378Z,99696.21
2018-12-25T09:00:35.905Z,99696.21
2018-12-25T09:01:39.278Z,99691.89
2018-12-25T09:02:42.217Z,99694.64
2018-12-25T09:03:45.225Z,99694.64
2018-12-25T09:04:48.139Z,99691.14
2018-12-25T09:05:54.177Z,99695.96
2018-12-25T09:06:57.118Z,99698.06
2018-12-25T09:08:00.127Z,99694.99
2018-12-25T09:09:05.321Z,99697.80
2018-12-25T09:10:09.066Z,99694.39
2018-12-25T09:11:14.556Z,99697.02
2018-12-25T09:12:21.504Z,99697.02
2018-12-25T09:13:24.489Z,99698.42
2018-12-25T09:14:27.487Z,99694.93
2018-12-25T09:15:30.462Z,99690.91
2018-12-25T09:16:33.438Z,99688.45
2018-12-25T09:17:36.368Z,99682.05
2018-12-25T09:18:39.658Z,99684.97
2018-12-25T09:19:42.732Z,99687.30
2018-12-25T09:20:45.741Z,99685.48
2018-12-25T09:21:50.853Z,99690.11
2018-12-25T09:23:04.102Z,99683.98
2018-12-25T09:23:58.506Z,99683.98
2018-12-25T09:25:01.870Z,99680.41
2018-12-25T09:26:05.379Z,99680.64
2018-12-25T09:27:08.880Z,99677.45
2018-12-25T09:28:11.830Z,99677.45
2018-12-25T09:29:14.750Z,99678.38
2018-12-25T09:30:17.711Z,99682.52
2018-12-25T09:31:21.194Z,99682.52
2018-12-25T09:32:26.304Z,99674.47
2018-12-25T09:33:32.822Z,99679.84
2018-12-25T09:34:35.830Z,99678.05
2018-12-25T09:35:39.137Z,99685.09
2018-12-25T09:36:42.369Z,99690.88
2018-12-25T09:37:46.774Z,99692.06
2018-12-25T09:38:49.724Z,99700.58
2018-12-25T09:39:52.672Z,99700.58
2018-12-25T09:40:56.389Z,99696.60
2018-12-25T09:42:00.978Z,99700.59
2018-12-25T09:43:04.474Z,99700.59
2018-12-25T09:44:09.104Z,99702.05
2018-12-25T09:45:12.050Z,99700.09
2018-12-25T09:46:15.004Z,99700.09
2018-12-25T09:47:17.990Z,99689.34
2018-12-25T09:48:21.412Z,99691.23
2018-12-25T09:49:24.648Z,99683.86
2018-12-25T09:50:31.161Z,99680.13
2018-12-25T09:51:33.767Z,99674.80
2018-12-25T09:52:39.589Z,99667.44
2018-12-25T09:53:45.694Z,99667.73
2018-12-25T09:54:56.076Z,99674.66
2018-12-25T09:55:59.004Z,99674.66
2018-12-25T09:57:02.413Z,99677.45
2018-12-25T09:58:08.282Z,99677.03
2018-12-25T09:59:11.231Z,99671.54
2018-12-25T10:00:17.198Z,99663.19
2018-12-25T10:01:21.708Z,99667.73
2018-12-25T10:02:24.662Z,99669.55
2018-12-25T10:03:27.711Z,99669.55
2018-12-25T10:04:30.624Z,99675.28
2018-12-25T10:05:38.006Z,99667.73
2018-12-25T10:06:49.838Z,99669.05
2018-12-25T10:08:02.957Z,99667.16
2018-12-25T10:09:10.662Z,99675.08
2018-12-25T10:10:13.663Z,99672.64
2018-12-25T10:11:19.181Z,99678.86
2018-12-25T10:12:23.443Z,99666.72
2018-12-25T10:13:26.554Z,99686.19
2018-12-25T10:14:29.626Z,99686.19
2018-12-25T10:15:32.574Z,99685.12
2018-12-25T10:16:35.913Z,99685.12
2018-12-25T10:17:38.850Z,99682.53
2018-12-25T10:18:42.081Z,99685.87
2018-12-25T10:19:45.145Z,99688.72
2018-12-25T10:20:48.097Z,99689.52
2018-12-25T10:21:51.091Z,99683.94
2018-12-25T10:22:59.259Z,99678.91
2018-12-25T10:24:02.418Z,99674.67
2018-12-25T10:25:05.733Z,99674.67
2018-12-25T10:26:08.649Z,99653.39
2018-12-25T10:27:11.595Z,99644.22
2018-12-25T10:28:16.088Z,99642.63
2018-12-25T10:29:19.015Z,99648.16
2018-12-25T10:30:22.033Z,99648.16
2018-12-25T10:31:25.251Z,99644.83
2018-12-25T10:32:28.189Z,99649.27
2018-12-25T10:33:36.255Z,99656.20
2018-12-25T10:34:39.256Z,99650.90
2018-12-25T10:35:42.487Z,99650.59
2018-12-25T10:36:45.900Z,99653.55
2018-12-25T10:37:49.162Z,99643.92
2018-12-25T10:38:52.553Z,99635.96
2018-12-25T10:39:58.851Z,99644.24
2018-12-25T10:41:01.790Z,99637.69
2018-12-25T10:42:05.178Z,99635.16
2018-12-25T10:43:09.798Z,99640.30
2018-12-25T10:44:12.740Z,99633.93
2018-12-25T10:45:15.786Z,99633.93
2018-12-25T10:46:18.745Z,99628.43
2018-12-25T10:47:21.673Z,99620.60
2018-12-25T10:48:24.603Z,99620.82
2018-12-25T10:49:29.212Z,99620.82
2018-12-25T10:50:33.794Z,99619.87
2018-12-25T10:51:36.767Z,99631.81
2018-12-25T10:52:39.712Z,99629.66
2018-12-25T10:53:44.092Z,99636.09
2018-12-25T10:54:47.116Z,99628.81
2018-12-25T10:55:50.481Z,99618.34
2018-12-25T10:56:53.433Z,99623.20
2018-12-25T10:57:58.113Z,99623.20
2018-12-25T10:59:01.100Z,99622.95
2018-12-25T11:00:04.251Z,99622.04
2018-12-25T11:01:07.285Z,99622.04
2018-12-25T11:02:10.506Z,99626.63
2018-12-25T11:03:13.923Z,99631.20
2018-12-25T11:04:16.883Z,99626.75
2018-12-25T11:05:19.916Z,99626.75
2018-12-25T11:06:22.871Z,99641.89
2018-12-25T11:07:25.827Z,99636.42
2018-12-25T11:08:29.288Z,99626.33
2018-12-25T11:09:33.139Z,99625.11
2018-12-25T11:10:36.145Z,99624.77
2018-12-25T11:11:39.160Z,99624.43
2018-12-25T11:12:44.514Z,99622.59
2018-12-25T11:13:53.888Z,99621.73
2018-12-25T11:14:58.247Z,99626.11
2018-12-25T11:16:01.644Z,99620.00
2018-12-25T11:17:04.765Z,99620.00
2018-12-25T11:18:08.157Z,99618.61
2018-12-25T11:19:15.526Z,99621.77
2018-12-25T11:20:19.090Z,99621.19
2018-12-25T11:21:28.653Z,99620.66
2018-12-25T11:22:31.659Z,99620.47
2018-12-25T11:23:34.582Z,99619.28
2018-12-25T11:24:37.557Z,99618.25
2018-12-25T11:25:40.538Z,99618.25
2018-12-25T11:26:46.883Z,99616.41
2018-12-25T11:27:50.051Z,99604.66
2018-12-25T11:28:53.025Z,99614.42
2018-12-25T11:29:55.977Z,99614.42
2018-12-25T11:42:36.938Z,99631.12
2018-12-25T11:43:40.002Z,99631.12
2018-12-25T11:44:42.972Z,99629.56
2018-12-25T11:45:45.975Z,99632.89
2018-12-25T11:46:54.357Z,99632.89
2018-12-25T11:47:57.816Z,99608.50
2018-12-25T11:49:00.752Z,99619.56
2018-12-25T11:50:04.244Z,99614.12
2018-12-25T11:51:07.336Z,99614.12
2018-12-25T11:52:10.369Z,99620.39
2018-12-25T11:53:17.973Z,99615.55
2018-12-25T11:54:22.809Z,99617.66
2018-12-25T11:55:28.105Z,99624.55
2018-12-25T11:56:30.719Z,99617.41
2018-12-25T11:57:33.739Z,99619.53
2018-12-25T11:58:40.109Z,99617.89
2018-12-25T11:59:43.079Z,99617.89
2018-12-25T12:00:57.873Z,99611.53
2018-12-25T12:02:00.857Z,99615.69
2018-12-25T12:03:03.976Z,99613.17
2018-12-25T12:04:09.829Z,99607.02
2018-12-25T12:05:12.785Z,99612.47
2018-12-25T12:06:15.936Z,99616.55
2018-12-25T12:07:19.329Z,99610.44
2018-12-25T12:08:25.265Z,99628.67
2018-12-25T12:09:28.393Z,99621.50
2018-12-25T12:10:31.394Z,99621.50
2018-12-25T12:11:34.864Z,99612.70
2018-12-25T12:12:37.774Z,99612.70
2018-12-25T12:13:41.960Z,99610.37
2018-12-25T12:14:45.206Z,99601.88
2018-12-25T12:15:48.126Z,99608.22
2018-12-25T12:16:54.201Z,99608.55
2018-12-25T12:17:57.876Z,99612.01
2018-12-25T12:19:00.841Z,99614.38
2018-12-25T12:20:05.124Z,99611.97
2018-12-25T12:21:11.230Z,99599.08
2018-12-25T12:22:25.519Z,99605.23
2018-12-25T12:23:29.102Z,99606.83
2018-12-25T12:24:32.640Z,99606.83
2018-12-25T12:25:35.683Z,99612.33
2018-12-25T12:26:39.074Z,99611.34
2018-12-25T12:27:46.382Z,99612.22
2018-12-25T12:28:51.985Z,99612.22
2018-12-25T12:29:55.136Z,99618.84
2018-12-25T12:30:58.870Z,99618.84
2018-12-25T12:32:04.127Z,99614.55
2018-12-25T12:33:07.161Z,99611.67
2018-12-25T12:34:10.114Z,99613.75
2018-12-25T12:35:12.989Z,99615.47
2018-12-25T12:36:15.987Z,99615.47
2018-12-25T12:37:19.113Z,99607.56
2018-12-25T12:38:22.333Z,99612.33
2018-12-25T12:39:25.299Z,99612.33
2018-12-25T12:40:28.712Z,99612.66
2018-12-25T12:41:31.756Z,99615.24
2018-12-25T12:42:34.819Z,99611.53
2018-12-25T12:43:37.743Z,99611.53
2018-12-25T12:44:41.098Z,99600.59
2018-12-25T12:45:46.902Z,99600.59
2018-12-25T12:46:50.319Z,99611.23
2018-12-25T12:47:53.336Z,99608.87
2018-12-25T12:48:56.305Z,99614.58
2018-12-25T12:49:59.321Z,99615.70
2018-12-25T12:51:03.085Z,99613.27
2018-12-25T12:52:08.221Z,99597.66
2018-12-25T12:53:11.309Z,99598.02
2018-12-25T12:54:15.687Z,99605.52
2018-12-25T12:55:18.775Z,99605.52